Time;durP1;ratioP1;P1;durP2;ratioP2;P2;SDS_P1;SDS_P2;PMS_P1;PMS_P2;Temp;Humidity;BMP_temperature;BMP_pressure;BME280_temperature;BME280_humidity;BME280_pressure;Samples;Min_cycle;Max_cycle;Signal;HPM_P1;HPM_P2
2022/02/08 00:02:09;;;;;;;;;;;;;;;12.84;70.75;101405.38;7360843;19;19941;-60
2022/02/08 00:04:34;;;;;;;;;;;;;;;12.86;70.52;101411.44;7362645;19;20347;-63
2022/02/08 00:07:02;;;;;;;;;;;;;;;12.86;70.86;101414.06;7358330;19;19910;-61
2022/02/08 00:09:28;;;;;;;;;;;;;;;12.88;70.89;101409.66;7351862;19;19922;-62
2022/02/08 00:11:53;;;;;;;;;;;;;;;12.88;71.03;101413.16;7350882;19;19923;-62
2022/02/08 00:14:19;;;;;;;;;;;;;;;12.90;70.95;101413.09;7354838;19;19963;-62
2022/02/08 00:16:44;;;;;;;;;;;;;;;12.91;71.07;101414.81;7354164;19;20280;-61
2022/02/08 00:19:09;;;;;;;;;;;;;;;12.93;70.90;101423.53;7350175;19;19930;-60
2022/02/08 00:21:35;;;;;;;;;;;;;;;12.93;70.71;101408.66;7350473;19;19954;-63
2022/02/08 00:24:00;;;;;;;;;;;;;;;12.94;71.03;101423.50;7362925;19;19919;-61
2022/02/08 00:26:25;;;;;;;;;;;;;;;12.95;71.01;101409.50;7359633;19;19919;-63
2022/02/08 00:28:51;;;;;;;;;;;;;;;12.95;71.29;101409.50;7356372;19;19907;-62
2022/02/08 00:31:17;;;;;;;;;;;;;;;12.96;71.11;101411.19;7362853;19;19935;-61
2022/02/08 00:33:42;;;;;;;;;;;;;;;12.97;70.90;101407.69;7357917;19;19919;-62
2022/02/08 00:36:07;;;;;;;;;;;;;;;12.98;71.38;101424.31;7360859;19;20299;-61
2022/02/08 00:38:34;;;;;;;;;;;;;;;12.99;71.07;101426.03;7361845;19;19919;-60
2022/02/08 00:41:01;;;;;;;;;;;;;;;12.99;71.52;101418.16;7359794;19;20832;-61
2022/02/08 00:43:32;;;;;;;;;;;;;;;13.02;71.20;101415.44;7370490;19;20613;-61
2022/02/08 00:46:06;;;;;;;;;;;;;;;13.02;71.52;101410.22;7371423;19;20610;-59
2022/02/08 00:48:39;;;;;;;;;;;;;;;13.03;71.25;101401.47;7376621;19;19922;-60
2022/02/08 00:51:05;;;;;;;;;;;;;;;13.03;71.66;101409.34;7370908;19;20380;-62
2022/02/08 00:53:30;;;;;;;;;;;;;;;13.04;71.51;101403.19;7374874;19;19966;-61
2022/02/08 00:55:56;;;;;;;;;;;;;;;13.04;71.58;101390.09;7372232;19;20256;-61
2022/02/08 00:58:21;;;;;;;;;;;;;;;13.06;71.76;101398.75;7365428;19;19962;-61
2022/02/08 01:00:47;;;;;;;;;;;;;;;13.08;71.62;101404.84;7367372;19;19923;-61
2022/02/08 01:03:12;;;;;;;;;;;;;;;13.09;71.74;101409.19;7365427;19;19923;-60
2022/02/08 01:05:44;;;;;;;;;;;;;;;13.09;71.49;101401.34;7367520;19;19956;-63
2022/02/08 01:08:09;;;;;;;;;;;;;;;13.10;71.74;101408.28;7364786;19;19923;-61
2022/02/08 01:10:38;;;;;;;;;;;;;;;13.11;71.51;101415.25;7367439;19;20602;-61
2022/02/08 01:13:04;;;;;;;;;;;;;;;13.11;71.65;101420.50;7370310;19;19914;-61
2022/02/08 01:15:29;;;;;;;;;;;;;;;13.11;72.00;101404.78;7370510;19;19918;-61
2022/02/08 01:17:57;;;;;;;;;;;;;;;13.12;71.63;101416.13;7366827;19;19930;-60
2022/02/08 01:20:30;;;;;;;;;;;;;;;13.11;71.89;101428.38;7366933;19;19990;-61
2022/02/08 01:22:55;;;;;;;;;;;;;;;13.10;71.71;101413.53;7362233;19;19922;-62
2022/02/08 01:25:28;;;;;;;;;;;;;;;13.11;72.35;101404.78;7363770;19;20038;-60
2022/02/08 01:27:57;;;;;;;;;;;;;;;13.11;72.13;101407.41;7366487;19;19925;-61
2022/02/08 01:30:31;;;;;;;;;;;;;;;13.10;72.26;101391.69;7362320;19;20340;-63
2022/02/08 01:38:06;;;;;;;;;;;;;;;13.08;72.56;101431.06;7365324;19;19923;-61
2022/02/08 01:46:14;;;;;;;;;;;;;;;13.01;72.25;101408.50;7365136;19;21018;-60
2022/02/08 01:48:51;;;;;;;;;;;;;;;13.00;72.52;101406.78;5353485;19;10019976;-60
2022/02/08 01:51:16;;;;;;;;;;;;;;;12.97;72.39;101397.19;4973623;19;10001991;-61
2022/02/08 01:53:42;;;;;;;;;;;;;;;12.95;72.46;101403.38;7366151;19;19922;-61
2022/02/08 01:56:07;;;;;;;;;;;;;;;12.93;72.81;101394.69;7362023;19;20006;-60
2022/02/08 01:58:33;;;;;;;;;;;;;;;12.90;72.60;101405.25;7364810;19;19939;-60
2022/02/08 02:00:58;;;;;;;;;;;;;;;12.91;73.17;101406.97;7367352;19;19922;-60
2022/02/08 02:03:23;;;;;;;;;;;;;;;12.90;73.14;101415.72;7363459;19;19911;-62
2022/02/08 02:05:52;;;;;;;;;;;;;;;12.89;72.93;101417.47;7366495;19;19923;-62
2022/02/08 02:08:17;;;;;;;;;;;;;;;12.88;73.20;101412.28;7362610;19;19922;-61
2022/02/08 02:10:42;;;;;;;;;;;;;;;12.85;73.34;101443.78;7367179;19;19919;-61
2022/02/08 02:13:24;;;;;;;;;;;;;;;12.83;73.19;101416.75;7366609;19;20304;-61
2022/02/08 02:15:50;;;;;;;;;;;;;;;12.81;73.28;101411.53;7364001;19;19919;-60
2022/02/08 02:18:15;;;;;;;;;;;;;;;12.78;73.48;101434.34;7366453;19;19929;-60
2022/02/08 02:20:40;;;;;;;;;;;;;;;12.76;73.96;101429.09;7360571;19;19918;-61
2022/02/08 02:23:06;;;;;;;;;;;;;;;12.73;73.79;101424.81;7364658;19;19926;-61
2022/02/08 02:25:32;;;;;;;;;;;;;;;12.71;73.89;101420.47;7364406;19;19919;-61
2022/02/08 02:27:58;;;;;;;;;;;;;;;12.70;74.25;101421.38;7365422;19;20880;-60
2022/02/08 02:30:24;;;;;;;;;;;;;;;12.68;74.18;101428.41;7368245;19;19926;-61
2022/02/08 02:32:50;;;;;;;;;;;;;;;12.66;74.27;101417.94;7365445;19;20030;-62
2022/02/08 02:35:15;;;;;;;;;;;;;;;12.65;74.19;101417.97;7366925;19;20006;-61
2022/02/08 02:37:41;;;;;;;;;;;;;;;12.64;74.61;101418.88;7366143;19;20758;-62
2022/02/08 02:40:06;;;;;;;;;;;;;;;12.61;74.57;101425.03;7363264;19;19919;-61
2022/02/08 02:42:33;;;;;;;;;;;;;;;12.60;74.09;101420.69;7365934;19;20317;-61
2022/02/08 02:44:58;;;;;;;;;;;;;;;12.59;74.69;101416.34;7361580;19;19914;-63
2022/02/08 02:47:25;;;;;;;;;;;;;;;12.58;74.69;101408.53;7368380;19;19919;-61
2022/02/08 02:49:50;;;;;;;;;;;;;;;12.56;74.47;101415.53;7365671;19;20325;-62
2022/02/08 02:52:15;;;;;;;;;;;;;;;12.56;74.54;101415.53;7366958;19;19995;-60
2022/02/08 02:54:40;;;;;;;;;;;;;;;12.55;75.04;101417.28;7365472;19;19919;-61
2022/02/08 02:57:06;;;;;;;;;;;;;;;12.54;74.98;101423.44;7365447;19;19911;-61
2022/02/08 02:59:33;;;;;;;;;;;;;;;12.54;75.05;101422.56;7355740;19;20082;-60
2022/02/08 03:02:30;;;;;;;;;;;;;;;12.54;75.43;101423.44;7361143;19;19919;-63
2022/02/08 03:05:20;;;;;;;;;;;;;;;12.53;75.41;101429.56;7258568;19;2004467;-61
2022/02/08 03:18:43;;;;;;;;;;;;;;;12.46;75.80;101420.09;7354790;19;19938;-60
2022/02/08 03:21:09;;;;;;;;;;;;;;;12.44;75.62;101414.03;7359240;19;19934;-62
2022/02/08 03:23:34;;;;;;;;;;;;;;;12.44;75.79;101416.63;7359289;19;19915;-63
2022/02/08 03:26:00;;;;;;;;;;;;;;;12.42;76.13;101407.97;7359152;19;19942;-62
2022/02/08 03:28:25;;;;;;;;;;;;;;;12.45;75.96;101410.50;7361897;19;19927;-60
2022/02/08 03:30:51;;;;;;;;;;;;;;;12.46;76.33;101412.22;7359408;19;19935;-62
2022/02/08 03:33:17;;;;;;;;;;;;;;;12.46;76.22;101402.59;7364423;19;19919;-60
2022/02/08 03:35:43;;;;;;;;;;;;;;;12.50;76.48;101411.28;7361283;19;19945;-62
2022/02/08 03:38:10;;;;;;;;;;;;;;;12.51;76.07;101405.13;7359765;19;19922;-61
2022/02/08 03:40:52;;;;;;;;;;;;;;;12.47;76.25;101400.88;3970543;19;10001448;-63
2022/02/08 03:43:28;;;;;;;;;;;;;;;12.54;76.49;101418.19;5633239;19;10001129;-62
2022/02/08 03:45:57;;;;;;;;;;;;;;;12.56;76.32;101419.00;7362567;19;19922;-62
2022/02/08 03:48:25;;;;;;;;;;;;;;;12.59;76.49;101416.34;7354294;19;19936;-60
2022/02/08 03:50:53;;;;;;;;;;;;;;;12.60;76.56;101425.06;7361596;19;19919;-60
2022/02/08 03:53:19;;;;;;;;;;;;;;;12.62;76.28;101416.28;7358728;19;20000;-62
2022/02/08 03:55:45;;;;;;;;;;;;;;;12.63;76.02;101415.41;7362563;19;19922;-61
2022/02/08 03:58:11;;;;;;;;;;;;;;;12.64;76.14;101424.97;7357024;19;19919;-61
2022/02/08 04:00:48;;;;;;;;;;;;;;;12.66;76.43;101427.56;7360970;19;19930;-62
2022/02/08 04:03:14;;;;;;;;;;;;;;;12.67;76.45;101403.97;7363659;19;20328;-59
2022/02/08 04:05:43;;;;;;;;;;;;;;;12.69;76.35;101402.16;7361265;19;20627;-62
2022/02/08 04:08:12;;;;;;;;;;;;;;;12.71;76.19;101413.47;7366194;19;19915;-62
2022/02/08 04:10:37;;;;;;;;;;;;;;;12.71;76.33;101402.97;7362479;19;19921;-63
2022/02/08 04:13:12;;;;;;;;;;;;;;;12.72;76.14;101407.34;7363149;19;20368;-61
2022/02/08 04:34:45;;;;;;;;;;;;;;;12.72;76.67;101412.59;7366322;19;19930;-61
2022/02/08 04:47:39;;;;;;;;;;;;;;;12.70;76.53;101403.88;7366660;19;19919;-62
2022/02/08 04:50:04;;;;;;;;;;;;;;;12.68;76.64;101400.44;7369264;19;19937;-62
2022/02/08 04:52:31;;;;;;;;;;;;;;;12.69;76.41;101412.66;7369145;19;19918;-61
2022/02/08 04:57:49;;;;;;;;;;;;;;;12.67;76.81;101424.94;7370160;19;20344;-60
2022/02/08 05:46:01;;;;;;;;;;;;;;;12.79;77.02;101415.94;7371661;19;19931;-61
2022/02/08 05:48:33;;;;;;;;;;;;;;;12.80;76.66;101420.28;7371967;19;19949;-63
2022/02/08 05:53:30;;;;;;;;;;;;;;;12.85;76.90;101422.81;7367806;19;19933;-60
2022/02/08 05:55:55;;;;;;;;;;;;;;;12.84;76.39;101442.94;7363838;19;19974;-60
2022/02/08 05:58:21;;;;;;;;;;;;;;;12.85;76.61;101443.78;7357189;19;20028;-61
2022/02/08 06:00:46;;;;;;;;;;;;;;;12.85;76.58;101433.31;7367098;19;19935;-61
2022/02/08 06:03:11;;;;;;;;;;;;;;;12.86;76.28;101440.28;7361007;19;19941;-61
2022/02/08 06:05:37;;;;;;;;;;;;;;;12.87;76.27;101437.59;7367177;19;19945;-62
2022/02/08 06:08:02;;;;;;;;;;;;;;;12.87;76.69;101442.00;7364819;19;20621;-63
2022/02/08 06:10:29;;;;;;;;;;;;;;;12.86;76.49;101420.16;7361193;19;19923;-62
2022/02/08 06:12:56;;;;;;;;;;;;;;;12.87;76.70;101436.75;7363567;19;19925;-60
2022/02/08 06:15:23;;;;;;;;;;;;;;;12.88;76.37;101433.25;7362349;19;19919;-61
2022/02/08 06:17:50;;;;;;;;;;;;;;;12.87;76.17;101427.13;7366701;19;19934;-62
2022/02/08 06:20:15;;;;;;;;;;;;;;;12.87;76.51;101427.13;7362972;19;19923;-60
2022/02/08 06:22:42;;;;;;;;;;;;;;;12.88;76.20;101433.25;7362541;19;19928;-62
2022/02/08 06:25:11;;;;;;;;;;;;;;;12.89;76.55;101419.25;7366230;19;19926;-61
2022/02/08 06:27:36;;;;;;;;;;;;;;;12.89;76.54;101432.34;7365059;19;20662;-60
2022/02/08 06:30:01;;;;;;;;;;;;;;;12.88;76.52;101433.25;7359926;19;19935;-61
2022/02/08 06:32:28;;;;;;;;;;;;;;;12.88;76.21;101433.25;7359780;19;20341;-61
2022/02/08 06:34:57;;;;;;;;;;;;;;;12.88;76.34;101428.00;7357140;19;20501;-63
2022/02/08 06:37:25;;;;;;;;;;;;;;;12.88;76.42;101433.25;7364016;19;19982;-61
2022/02/08 06:39:50;;;;;;;;;;;;;;;12.86;76.25;101414.91;7361203;19;19941;-62
2022/02/08 06:42:15;;;;;;;;;;;;;;;12.88;76.43;101417.53;7365906;19;19918;-61
2022/02/08 06:44:41;;;;;;;;;;;;;;;12.88;76.48;101420.16;7363186;19;19927;-62
2022/02/08 06:47:06;;;;;;;;;;;;;;;12.89;76.37;101419.25;7362665;19;19929;-61
2022/02/08 06:49:32;;;;;;;;;;;;;;;12.89;76.76;101420.09;7366599;19;19943;-61
2022/02/08 06:51:57;;;;;;;;;;;;;;;12.91;76.30;101422.69;7361166;19;19919;-63
2022/02/08 06:54:22;;;;;;;;;;;;;;;12.92;76.34;101424.41;7354139;19;19936;-61
2022/02/08 06:56:48;;;;;;;;;;;;;;;12.92;76.34;101442.75;7363812;19;19919;-61
2022/02/08 06:59:16;;;;;;;;;;;;;;;12.94;76.55;101430.50;7358822;19;20336;-60
2022/02/08 07:01:42;;;;;;;;;;;;;;;12.95;76.59;101440.94;7363427;19;19923;-63
2022/02/08 07:04:11;;;;;;;;;;;;;;;12.96;76.41;101439.19;7365437;19;19923;-63
2022/02/08 07:06:37;;;;;;;;;;;;;;;12.97;76.68;101427.78;7364660;19;19915;-61
2022/02/08 07:09:02;;;;;;;;;;;;;;;12.92;76.48;101413.91;7356159;19;19922;-63
2022/02/08 07:11:27;;;;;;;;;;;;;;;12.98;76.27;101426.94;7361756;19;19929;-63
2022/02/08 07:13:53;;;;;;;;;;;;;;;12.98;76.32;101432.16;7361471;19;19926;-61
2022/02/08 07:16:19;;;;;;;;;;;;;;;12.99;76.61;101428.66;7361825;19;20459;-61
2022/02/08 07:18:44;;;;;;;;;;;;;;;12.99;76.69;101436.50;7360695;19;19978;-62
2022/02/08 07:21:11;;;;;;;;;;;;;;;13.00;76.50;101438.22;7364212;19;19919;-62
2022/02/08 07:23:36;;;;;;;;;;;;;;;13.00;76.31;101440.84;7362712;19;19923;-61
2022/02/08 07:26:02;;;;;;;;;;;;;;;12.99;76.48;101436.50;7366728;19;19968;-61
2022/02/08 07:28:27;;;;;;;;;;;;;;;12.98;76.49;101434.78;7366446;19;19932;-60
2022/02/08 07:31:00;;;;;;;;;;;;;;;12.97;76.21;101440.91;7368583;19;19936;-60
2022/02/08 07:33:26;;;;;;;;;;;;;;;12.95;76.33;101437.47;7359476;19;20422;-61
2022/02/08 07:36:00;;;;;;;;;;;;;;;12.94;76.63;101444.47;7361793;19;19918;-63
2022/02/08 07:38:34;;;;;;;;;;;;;;;12.92;76.37;101450.63;1882513;19;10021871;-60
2022/02/08 07:43:25;;;;;;;;;;;;;;;12.87;76.50;101453.34;7364360;19;19918;-61
2022/02/08 07:45:50;;;;;;;;;;;;;;;12.85;76.14;101456.91;7358521;19;19978;-60
2022/02/08 07:48:16;;;;;;;;;;;;;;;12.82;76.61;101459.56;7356707;19;19937;-61
2022/02/08 07:50:42;;;;;;;;;;;;;;;12.79;76.51;101455.25;7362625;19;19914;-61
2022/02/08 07:53:13;;;;;;;;;;;;;;;12.75;76.70;101464.06;7362487;19;20546;-63
2022/02/08 07:55:39;;;;;;;;;;;;;;;12.71;76.81;101447.53;7359572;19;19915;-61
2022/02/08 07:58:04;;;;;;;;;;;;;;;12.68;76.89;101452.00;7366388;19;19948;-64
2022/02/08 08:00:29;;;;;;;;;;;;;;;12.65;76.81;101452.03;7360195;19;19950;-63
2022/02/08 08:02:55;;;;;;;;;;;;;;;12.63;77.11;101462.56;7368877;19;19914;-62
2022/02/08 08:05:20;;;;;;;;;;;;;;;12.60;77.30;101467.84;7361351;19;19933;-61
2022/02/08 08:07:45;;;;;;;;;;;;;;;12.58;77.03;101467.03;7345578;19;20014;-62
2022/02/08 08:10:17;;;;;;;;;;;;;;;12.57;77.48;101462.69;7362273;19;19994;-60
2022/02/08 08:12:46;;;;;;;;;;;;;;;12.53;77.13;101476.72;7357789;19;20044;-60
2022/02/08 08:15:25;;;;;;;;;;;;;;;12.52;77.41;101476.72;7375224;19;19911;-60
2022/02/08 08:18:17;;;;;;;;;;;;;;;12.51;77.46;101486.34;7367977;19;19925;-61
2022/02/08 08:20:43;;;;;;;;;;;;;;;12.51;77.49;101496.81;7271748;19;2004390;-59
2022/02/08 08:23:08;;;;;;;;;;;;;;;12.50;77.59;101497.72;7363517;19;19939;-64
2022/02/08 08:25:34;;;;;;;;;;;;;;;12.50;77.87;101505.59;7365016;19;19915;-63
2022/02/08 08:27:59;;;;;;;;;;;;;;;12.50;77.63;101499.50;7362145;19;19927;-60
2022/02/08 08:30:25;;;;;;;;;;;;;;;12.49;77.60;101516.97;7365996;19;19927;-61
2022/02/08 08:32:51;;;;;;;;;;;;;;;12.49;78.02;101514.34;7369336;19;19943;-61
2022/02/08 08:35:20;;;;;;;;;;;;;;;12.49;77.67;101524.81;7366522;19;20537;-62
2022/02/08 08:37:46;;;;;;;;;;;;;;;12.48;77.90;101512.63;7367657;19;19935;-62
2022/02/08 08:40:39;;;;;;;;;;;;;;;12.49;77.58;101513.47;7365480;19;19922;-63
2022/02/08 08:44:01;;;;;;;;;;;;;;;12.46;77.80;101524.88;7260664;19;2004416;-60
2022/02/08 08:51:20;;;;;;;;;;;;;;;12.39;77.87;101518.00;7360117;19;19944;-59
2022/02/08 08:53:39;;;;;;;;;;;;;;;12.37;77.52;101525.91;7350573;19;19918;-63
2022/02/08 08:56:04;;;;;;;;;;;;;;;12.35;77.92;101526.81;7360668;19;19952;-63
2022/02/08 08:58:31;;;;;;;;;;;;;;;12.33;77.87;101515.50;7353059;19;19923;-62
2022/02/08 09:00:59;;;;;;;;;;;;;;;12.33;77.56;101531.22;7359902;19;19950;-60
2022/02/08 09:03:24;;;;;;;;;;;;;;;12.32;78.04;101524.25;7364609;19;19934;-60
2022/02/08 09:05:50;;;;;;;;;;;;;;;12.32;77.92;101526.88;7373446;19;19923;-60
2022/02/08 09:08:15;;;;;;;;;;;;;;;12.31;77.91;101525.13;7372179;19;19986;-59
2022/02/08 09:10:55;;;;;;;;;;;;;;;12.31;77.92;101535.59;7374392;19;20019;-61
2022/02/08 09:13:28;;;;;;;;;;;;;;;12.31;77.97;101546.06;7357529;19;20617;-59
2022/02/08 09:16:20;;;;;;;;;;;;;;;12.32;77.71;101542.59;7358421;19;19927;-60
2022/02/08 09:24:54;;;;;;;;;;;;;;;12.33;78.13;101525.97;7369709;19;19915;-60
2022/02/08 09:30:03;;;;;;;;;;;;;;;12.29;77.88;101537.41;3340782;19;10021761;-61
2022/02/08 09:32:40;;;;;;;;;;;;;;;12.31;78.00;101530.38;6042120;19;10001214;-61
2022/02/08 09:35:08;;;;;;;;;;;;;;;12.37;77.82;101546.00;7340580;19;20340;-61
2022/02/08 09:37:34;;;;;;;;;;;;;;;12.38;78.07;101548.59;7366585;19;20327;-62
2022/02/08 09:40:02;;;;;;;;;;;;;;;12.40;78.23;101551.16;7368194;19;19923;-61
2022/02/08 09:42:28;;;;;;;;;;;;;;;12.41;78.30;101563.38;7363350;19;20507;-62
2022/02/08 09:44:54;;;;;;;;;;;;;;;12.45;77.99;101578.16;7360518;19;19952;-60
2022/02/08 09:47:28;;;;;;;;;;;;;;;12.46;78.11;101577.25;7360495;19;19919;-61
2022/02/08 09:49:55;;;;;;;;;;;;;;;12.46;78.18;101562.41;7373546;19;19925;-60
2022/02/08 09:52:22;;;;;;;;;;;;;;;12.46;77.87;101574.63;7363628;19;19930;-61
2022/02/08 09:54:47;;;;;;;;;;;;;;;12.46;77.67;101575.50;7369502;19;19986;-58
2022/02/08 09:57:14;;;;;;;;;;;;;;;12.46;77.81;101572.88;7369824;19;20028;-59
2022/02/08 09:59:41;;;;;;;;;;;;;;;12.45;77.95;101575.53;7368385;19;19926;-61
2022/02/08 10:02:07;;;;;;;;;;;;;;;12.43;77.89;101577.31;7336315;19;20418;-59
2022/02/08 10:04:33;;;;;;;;;;;;;;;12.41;77.76;101577.31;7359987;19;20394;-60
2022/02/08 10:07:11;;;;;;;;;;;;;;;12.40;78.01;101590.47;7364674;19;19911;-62
2022/02/08 10:09:36;;;;;;;;;;;;;;;12.39;77.83;101586.13;7361839;19;19923;-61
2022/02/08 10:12:02;;;;;;;;;;;;;;;12.38;77.87;101580.00;7359187;19;19951;-60
2022/02/08 10:14:40;;;;;;;;;;;;;;;12.37;78.05;101572.19;7354527;19;20018;-59
2022/02/08 10:22:37;;;;;;;;;;;;;;;12.38;78.19;101573.91;7362736;19;19960;-61
2022/02/08 10:25:04;;;;;;;;;;;;;;;12.37;78.22;101580.91;7361979;19;19919;-59
2022/02/08 10:27:39;;;;;;;;;;;;;;;12.37;77.79;101580.06;7362715;19;19927;-61
2022/02/08 10:30:30;;;;;;;;;;;;;;;12.38;78.22;101579.16;7361536;19;19915;-60
2022/02/08 10:38:23;;;;;;;;;;;;;;;12.39;78.10;101580.88;7353855;19;19921;-59
2022/02/08 10:40:50;;;;;;;;;;;;;;;12.39;77.90;101580.88;7361965;19;20442;-61
2022/02/08 10:43:16;;;;;;;;;;;;;;;12.37;77.63;101586.16;7362964;19;19923;-60
2022/02/08 10:45:42;;;;;;;;;;;;;;;12.37;78.03;101590.53;7362732;19;19921;-61
2022/02/08 10:48:09;;;;;;;;;;;;;;;12.35;77.81;101602.75;7365162;19;19911;-59
2022/02/08 10:50:37;;;;;;;;;;;;;;;12.25;77.66;101582.84;7367517;19;19958;-60
2022/02/08 10:53:05;;;;;;;;;;;;;;;12.32;77.69;101605.44;7354876;19;19941;-61
2022/02/08 10:55:54;;;;;;;;;;;;;;;12.31;78.00;101604.56;7354824;19;19931;-61
2022/02/08 11:03:23;;;;;;;;;;;;;;;12.31;77.90;101598.47;7356362;19;20300;-60
2022/02/08 11:09:40;;;;;;;;;;;;;;;12.35;78.04;101610.63;7354832;19;19948;-62
2022/02/08 11:14:19;;;;;;;;;;;;;;;12.42;78.32;101609.66;7355829;19;19945;-61
2022/02/08 11:20:03;;;;;;;;;;;;;;;12.43;78.26;101593.03;3801861;19;10001829;-60
2022/02/08 11:25:40;;;;;;;;;;;;;;;12.53;78.36;101594.63;7253292;19;2004538;-59
2022/02/08 11:28:09;;;;;;;;;;;;;;;12.56;78.38;101594.56;7352197;19;19919;-60
2022/02/08 11:30:50;;;;;;;;;;;;;;;12.59;78.26;101596.28;7359294;19;19978;-61
2022/02/08 11:44:33;;;;;;;;;;;;;;;12.83;78.62;101587.13;7358502;19;19956;-60
2022/02/08 12:00:12;;;;;;;;;;;;;;;13.36;78.50;101575.63;7351204;19;19939;-60
2022/02/08 12:02:56;;;;;;;;;;;;;;;13.45;78.19;101582.47;7251495;19;2004537;-60
2022/02/08 12:06:01;;;;;;;;;;;;;;;13.52;77.97;101577.94;7351422;19;20287;-62
2022/02/08 12:08:11;;;;;;;;;;;;;;;13.55;77.92;101573.50;7345434;19;19911;-62
2022/02/08 12:10:46;;;;;;;;;;;;;;;13.57;77.76;101568.22;7347773;19;19939;-59
2022/02/08 12:52:04;;;;;;;;;;;;;;;13.48;77.38;101550.91;7362007;19;19944;-60
2022/02/08 13:02:28;;;;;;;;;;;;;;;13.41;77.16;101544.94;7358635;19;19918;-61
2022/02/08 14:01:46;;;;;;;;;;;;;;;13.88;76.91;101487.00;7349991;19;20337;-61
2022/02/08 14:15:27;;;;;;;;;;;;;;;13.91;77.03;101486.97;7347512;19;20474;-61
2022/02/08 14:18:02;;;;;;;;;;;;;;;13.88;76.78;101476.50;7259444;19;2004220;-59
2022/02/08 14:25:52;;;;;;;;;;;;;;;13.74;76.11;101475.09;7363388;19;19939;-60
2022/02/08 14:31:22;;;;;;;;;;;;;;;13.64;76.48;101468.34;7359365;19;20629;-61
2022/02/08 14:34:07;;;;;;;;;;;;;;;13.61;76.38;101455.28;7358402;19;19922;-62
2022/02/08 14:59:22;;;;;;;;;;;;;;;13.54;76.91;101430.09;7367811;19;20282;-60
2022/02/08 15:09:00;;;;;;;;;;;;;;;13.52;76.84;101431.88;7361988;19;19923;-60
2022/02/08 15:11:34;;;;;;;;;;;;;;;13.52;76.77;101428.38;7352771;19;19919;-61
2022/02/08 15:14:01;;;;;;;;;;;;;;;13.49;76.82;101426.72;7362833;19;19922;-61
2022/02/08 15:16:29;;;;;;;;;;;;;;;13.46;76.56;101416.28;7353823;19;19919;-61
2022/02/08 15:18:55;;;;;;;;;;;;;;;13.45;76.98;101415.41;7352513;19;19926;-60
2022/02/08 15:21:26;;;;;;;;;;;;;;;13.43;76.79;101405.84;7350748;19;19923;-61
2022/02/08 15:23:52;;;;;;;;;;;;;;;13.40;76.69;101414.66;7360960;19;19914;-59
2022/02/08 15:26:17;;;;;;;;;;;;;;;13.35;76.69;101410.41;7358644;19;20228;-63
2022/02/08 15:28:42;;;;;;;;;;;;;;;13.38;76.94;101410.31;7358974;19;19915;-60
2022/02/08 15:31:08;;;;;;;;;;;;;;;13.37;76.88;101413.84;7356971;19;19932;-61
2022/02/08 15:33:33;;;;;;;;;;;;;;;13.33;76.96;101413.06;7344145;19;19927;-62
2022/02/08 15:35:59;;;;;;;;;;;;;;;13.33;76.82;101414.81;7368747;19;19922;-61
2022/02/08 15:38:29;;;;;;;;;;;;;;;13.33;76.87;101415.69;7360749;19;20435;-61
2022/02/08 15:40:55;;;;;;;;;;;;;;;13.32;76.78;101413.09;7350752;19;19997;-61
2022/02/08 15:43:26;;;;;;;;;;;;;;;13.30;76.88;101423.63;4701352;19;10001053;-61
2022/02/08 15:46:05;;;;;;;;;;;;;;;13.27;76.97;101407.09;4005652;19;10001883;-60
2022/02/08 15:48:32;;;;;;;;;;;;;;;13.23;76.63;101399.31;7360595;19;20522;-62
2022/02/08 15:51:06;;;;;;;;;;;;;;;13.20;76.81;101398.47;7363064;19;20018;-59
2022/02/08 15:54:00;;;;;;;;;;;;;;;13.17;76.83;101399.38;7360727;19;20002;-61
2022/02/08 16:09:43;;;;;;;;;;;;;;;13.05;77.06;101372.59;7353174;19;19919;-60
2022/02/08 16:24:55;;;;;;;;;;;;;;;13.05;77.77;101373.44;7360806;19;19978;-63
2022/02/08 16:27:42;;;;;;;;;;;;;;;13.04;77.45;101382.22;7369797;19;19911;-60
2022/02/08 16:57:09;;;;;;;;;;;;;;;12.92;77.40;101379.84;7361030;19;20263;-61
2022/02/08 16:59:35;;;;;;;;;;;;;;;12.90;77.76;101376.41;7354919;19;19925;-61
2022/02/08 17:02:04;;;;;;;;;;;;;;;12.90;77.34;101379.88;7360502;19;19932;-61
2022/02/08 17:04:29;;;;;;;;;;;;;;;12.89;77.79;101375.53;7356761;19;19947;-63
2022/02/08 17:06:55;;;;;;;;;;;;;;;12.87;77.76;101368.59;7351545;19;20539;-62
2022/02/08 17:12:04;;;;;;;;;;;;;;;12.83;77.42;101369.56;7366170;19;19923;-61
2022/02/08 17:14:46;;;;;;;;;;;;;;;12.80;77.74;101365.25;7362885;19;19918;-61
2022/02/08 17:49:37;;;;;;;;;;;;;;;12.25;78.14;101358.50;7359405;19;19915;-62
2022/02/08 17:52:03;;;;;;;;;;;;;;;12.23;78.34;101355.06;7365184;19;19922;-59
2022/02/08 17:54:28;;;;;;;;;;;;;;;12.22;78.41;101360.34;7364729;19;19911;-61
2022/02/08 17:56:56;;;;;;;;;;;;;;;12.18;78.52;101360.38;7359747;19;19954;-63
2022/02/08 17:59:24;;;;;;;;;;;;;;;12.17;78.24;101356.03;7362165;19;19915;-62
2022/02/08 18:01:50;;;;;;;;;;;;;;;12.15;78.56;101357.81;7360312;19;19924;-61
2022/02/08 18:04:16;;;;;;;;;;;;;;;12.10;78.33;101348.31;7357006;19;19949;-63
2022/02/08 18:06:41;;;;;;;;;;;;;;;12.12;78.32;101357.88;7349787;19;19914;-60
2022/02/08 18:09:06;;;;;;;;;;;;;;;12.11;78.25;101356.13;7349668;19;19915;-61
2022/02/08 18:11:38;;;;;;;;;;;;;;;12.10;78.66;101354.41;4486387;19;10000997;-59
2022/02/08 18:14:06;;;;;;;;;;;;;;;12.09;78.74;101351.81;4008680;19;10001945;-61
2022/02/08 18:16:34;;;;;;;;;;;;;;;12.08;78.86;101353.59;7370165;19;20606;-60
2022/02/08 18:19:08;;;;;;;;;;;;;;;12.07;78.48;101345.78;7361765;19;21096;-60
2022/02/08 18:21:38;;;;;;;;;;;;;;;12.07;78.90;101354.47;7363699;19;19927;-59
2022/02/08 18:55:42;;;;;;;;;;;;;;;12.06;79.19;101357.97;7365687;19;19915;-60
2022/02/08 19:05:25;;;;;;;;;;;;;;;12.04;79.37;101359.75;7364409;19;20267;-61
2022/02/08 19:07:16;;;;;;;;;;;;;;;12.03;79.09;101368.50;7370030;19;19938;-60
2022/02/08 19:12:27;;;;;;;;;;;;;;;12.04;79.08;101354.53;7360881;19;19922;-59
2022/02/08 19:20:08;;;;;;;;;;;;;;;12.04;79.01;101362.38;7357360;19;19982;-61
2022/02/08 19:22:33;;;;;;;;;;;;;;;12.03;78.95;101362.41;7356322;19;20033;-60
2022/02/08 19:24:59;;;;;;;;;;;;;;;12.00;78.96;101362.47;7360634;19;19942;-62
2022/02/08 19:27:24;;;;;;;;;;;;;;;11.98;78.96;101367.72;7359152;19;19986;-61
2022/02/08 19:29:50;;;;;;;;;;;;;;;11.96;78.75;101377.34;7338929;19;19929;-60
2022/02/08 19:32:15;;;;;;;;;;;;;;;11.93;78.72;101383.50;7354305;19;19918;-59
2022/02/08 19:34:42;;;;;;;;;;;;;;;11.90;78.96;101377.47;7360026;19;20244;-61
2022/02/08 19:37:08;;;;;;;;;;;;;;;11.88;78.64;101371.41;7349760;19;19925;-62
2022/02/08 19:39:35;;;;;;;;;;;;;;;11.85;78.92;101368.81;7360357;19;19926;-62
2022/02/08 19:42:00;;;;;;;;;;;;;;;11.81;78.82;101372.34;7358876;19;19950;-60
2022/02/08 19:44:26;;;;;;;;;;;;;;;11.78;78.49;101361.94;7343213;19;19926;-60
2022/02/08 19:46:51;;;;;;;;;;;;;;;11.74;78.61;101363.75;7361658;19;19923;-60
2022/02/08 19:49:17;;;;;;;;;;;;;;;11.70;78.98;101373.38;7353390;19;19923;-62
2022/02/08 19:51:42;;;;;;;;;;;;;;;11.68;78.96;101375.19;7367059;19;19918;-60
2022/02/08 19:54:11;;;;;;;;;;;;;;;11.66;78.96;101384.81;7360379;19;20027;-60
2022/02/08 19:56:42;;;;;;;;;;;;;;;11.62;78.47;101396.22;7364499;19;19958;-62
2022/02/08 19:59:11;;;;;;;;;;;;;;;11.59;78.52;101398.00;7368633;19;19943;-60
2022/02/08 20:01:38;;;;;;;;;;;;;;;11.54;78.24;101395.47;7362602;19;19942;-59
2022/02/08 20:04:06;;;;;;;;;;;;;;;11.42;78.64;101372.13;7365416;19;19923;-61
2022/02/08 20:06:33;;;;;;;;;;;;;;;11.45;78.19;101395.59;7363880;19;19938;-59
2022/02/08 20:08:59;;;;;;;;;;;;;;;11.40;78.66;101382.63;7363705;19;19929;-61
2022/02/08 20:11:38;;;;;;;;;;;;;;;11.35;78.75;101388.78;6312083;19;10000400;-59
2022/02/08 20:14:07;;;;;;;;;;;;;;;11.31;78.42;101393.22;2741525;19;10001977;-59
2022/02/08 20:16:33;;;;;;;;;;;;;;;11.27;78.52;101381.06;7366118;19;19940;-59
2022/02/08 20:19:01;;;;;;;;;;;;;;;11.24;78.47;101381.09;7367868;19;19919;-61
2022/02/08 20:21:27;;;;;;;;;;;;;;;11.22;78.93;101379.41;7347994;19;20336;-59